Time;durP1;ratioP1;P1;durP2;ratioP2;P2;SDS_P1;SDS_P2;PMS_P1;PMS_P2;Temp;Humidity;BMP_temperature;BMP_pressure;BME280_temperature;BME280_humidity;BME280_pressure;Samples;Min_cycle;Max_cycle;Signal;HPM_P1;HPM_P2
2022/05/24 00:01:14;;;;;;;;;;;;;;;;;;5087615;28;19915;-75
2022/05/24 00:04:01;;;;;;;;;;;;;;;;;;5091171;28;19924;-75
2022/05/24 00:06:47;;;;;;;;;;;;;;;;;;5090560;28;19908;-75
2022/05/24 00:09:34;;;;;;;;;;;;;;;;;;5090955;28;19912;-75
2022/05/24 00:12:20;;;;;;;;;;;;;;;;;;5092436;28;19908;-75
2022/05/24 00:15:19;;;;;;;;;;;;;;;;;;5093335;28;19915;-75
2022/05/24 00:18:06;;;;;;;;;;;;;;;;;;5097988;28;19916;-75
2022/05/24 00:20:52;;;;;;;;;;;;;;;;;;5092262;28;19908;-75
2022/05/24 00:23:38;;;;;;;;;;;;;;;;;;5087820;28;19990;-74
2022/05/24 00:26:25;;;;;;;;;;;;;;;;;;5084562;28;20287;-75
2022/05/24 00:29:11;;;;;;;;;;;;;;;;;;5093337;28;19920;-75
2022/05/24 00:31:59;;;;;;;;;;;;;;;;;;5091604;28;19931;-75
2022/05/24 00:34:46;;;;;;;;;;;;;;;;;;5102359;28;20291;-75
2022/05/24 00:37:32;;;;;;;;;;;;;;;;;;5089177;28;19920;-74
2022/05/24 00:40:19;;;;;;;;;;;;;;;;;;5081870;28;20283;-74
2022/05/24 00:43:05;;;;;;;;;;;;;;;;;;5091842;28;19908;-75
2022/05/24 00:45:52;;;;;;;;;;;;;;;;;;5090133;28;19912;-75
2022/05/24 00:48:38;;;;;;;;;;;;;;;;;;5098623;28;19912;-75
2022/05/24 00:51:25;;;;;;;;;;;;;;;;;;5092785;28;20295;-75
2022/05/24 00:54:11;;;;;;;;;;;;;;;;;;5079465;28;19912;-75
2022/05/24 00:56:58;;;;;;;;;;;;;;;;;;5088982;28;19916;-75
2022/05/24 00:59:44;;;;;;;;;;;;;;;;;;5095081;28;19919;-75
2022/05/24 01:02:31;;;;;;;;;;;;;;;;;;5088797;28;19924;-75
2022/05/24 01:05:17;;;;;;;;;;;;;;;;;;5088912;28;20512;-75
2022/05/24 01:08:04;;;;;;;;;;;;;;;;;;5083331;28;19908;-75
2022/05/24 01:10:50;;;;;;;;;;;;;;;;;;5073008;28;19908;-74
2022/05/24 01:13:38;;;;;;;;;;;;;;;;;;5102004;28;19919;-75
2022/05/24 01:16:24;;;;;;;;;;;;;;;;;;5093959;28;19912;-75
2022/05/24 01:19:11;;;;;;;;;;;;;;;;;;5088819;28;19931;-74
2022/05/24 01:21:57;;;;;;;;;;;;;;;;;;5081126;28;19943;-74
2022/05/24 01:24:43;;;;;;;;;;;;;;;;;;5087758;28;20299;-75
2022/05/24 01:27:30;;;;;;;;;;;;;;;;;;5082975;28;19909;-75
2022/05/24 01:30:17;;;;;;;;;;;;;;;;;;5101346;28;19927;-74
2022/05/24 01:36:11;;;;;;;;;;;;;;;;;;5087367;28;19913;-74
2022/05/24 01:38:57;;;;;;;;;;;;;;;;;;5090895;28;19926;-74
2022/05/24 01:41:44;;;;;;;;;;;;;;;;;;5088283;28;20245;-74
2022/05/24 01:44:31;;;;;;;;;;;;;;;;;;5088776;28;19939;-74
2022/05/24 01:47:20;;;;;;;;;;;;;;;;;;5088744;28;20669;-73
2022/05/24 01:50:06;;;;;;;;;;;;;;;;;;5090094;28;19919;-76
2022/05/24 01:52:53;;;;;;;;;;;;;;;;;;5079319;28;19917;-76
2022/05/24 01:55:39;;;;;;;;;;;;;;;;;;5089230;28;19932;-74
2022/05/24 01:58:26;;;;;;;;;;;;;;;;;;5086725;28;19994;-75
2022/05/24 02:01:13;;;;;;;;;;;;;;;;;;5079733;28;19914;-74
2022/05/24 02:04:00;;;;;;;;;;;;;;;;;;5092387;28;20666;-75
2022/05/24 02:06:46;;;;;;;;;;;;;;;;;;5096662;28;19909;-74
2022/05/24 02:09:33;;;;;;;;;;;;;;;;;;5076951;28;19912;-73
2022/05/24 02:12:19;;;;;;;;;;;;;;;;;;5088350;28;20717;-74
2022/05/24 02:15:06;;;;;;;;;;;;;;;;;;5088587;28;19916;-73
2022/05/24 02:17:52;;;;;;;;;;;;;;;;;;5091662;28;19920;-74
2022/05/24 02:20:39;;;;;;;;;;;;;;;;;;5093088;28;19920;-74
2022/05/24 02:23:25;;;;;;;;;;;;;;;;;;5090491;28;19912;-74
2022/05/24 02:26:12;;;;;;;;;;;;;;;;;;5100158;28;20304;-74
2022/05/24 02:29:00;;;;;;;;;;;;;;;;;;5095724;28;19918;-74
2022/05/24 02:31:46;;;;;;;;;;;;;;;;;;5073645;28;19927;-74
2022/05/24 02:34:34;;;;;;;;;;;;;;;;;;5087757;28;20299;-75
2022/05/24 02:37:21;;;;;;;;;;;;;;;;;;5085702;28;20288;-74
2022/05/24 02:43:12;;;;;;;;;;;;;;;;;;5080562;28;19919;-74
2022/05/24 02:46:01;;;;;;;;;;;;;;;;;;5089913;28;19935;-75
2022/05/24 02:48:47;;;;;;;;;;;;;;;;;;5087766;28;19912;-74
2022/05/24 02:51:34;;;;;;;;;;;;;;;;;;5081224;28;19916;-74
2022/05/24 02:54:20;;;;;;;;;;;;;;;;;;5089149;28;19912;-74
2022/05/24 02:57:07;;;;;;;;;;;;;;;;;;5083512;28;19920;-74
2022/05/24 02:59:53;;;;;;;;;;;;;;;;;;5089702;28;19916;-74
2022/05/24 03:02:40;;;;;;;;;;;;;;;;;;5086636;28;19908;-74
2022/05/24 03:05:26;;;;;;;;;;;;;;;;;;5087964;28;19908;-74
2022/05/24 03:11:18;;;;;;;;;;;;;;;;;;5098597;28;20291;-75
2022/05/24 03:14:16;;;;;;;;;;;;;;;;;;5096694;28;19914;-74
2022/05/24 03:17:03;;;;;;;;;;;;;;;;;;5085325;28;19916;-74
2022/05/24 03:19:49;;;;;;;;;;;;;;;;;;5088010;28;19920;-75
2022/05/24 03:22:35;;;;;;;;;;;;;;;;;;5074870;28;19919;-75
2022/05/24 03:25:22;;;;;;;;;;;;;;;;;;5085222;28;19916;-75
2022/05/24 03:28:08;;;;;;;;;;;;;;;;;;5087240;28;19938;-75
2022/05/24 03:30:55;;;;;;;;;;;;;;;;;;5082876;28;19924;-74
2022/05/24 03:33:41;;;;;;;;;;;;;;;;;;5095068;28;19912;-74
2022/05/24 03:36:28;;;;;;;;;;;;;;;;;;5088282;28;19912;-75
2022/05/24 03:39:15;;;;;;;;;;;;;;;;;;5081419;28;19920;-76
2022/05/24 03:42:01;;;;;;;;;;;;;;;;;;5091063;28;19908;-76
2022/05/24 03:44:47;;;;;;;;;;;;;;;;;;5079524;28;19915;-76
2022/05/24 03:47:34;;;;;;;;;;;;;;;;;;5080719;28;19919;-76
2022/05/24 03:50:20;;;;;;;;;;;;;;;;;;5086025;28;19916;-76
2022/05/24 03:53:07;;;;;;;;;;;;;;;;;;5094235;28;19908;-75
2022/05/24 03:55:53;;;;;;;;;;;;;;;;;;5077523;28;19923;-75
2022/05/24 03:58:40;;;;;;;;;;;;;;;;;;5086141;28;20403;-76
2022/05/24 04:01:26;;;;;;;;;;;;;;;;;;5089882;28;20283;-75
2022/05/24 04:04:13;;;;;;;;;;;;;;;;;;5087073;28;19912;-77
2022/05/24 04:06:59;;;;;;;;;;;;;;;;;;5086138;28;19909;-75
2022/05/24 04:09:46;;;;;;;;;;;;;;;;;;5084847;28;20462;-75
2022/05/24 04:12:32;;;;;;;;;;;;;;;;;;5082129;28;19912;-74
2022/05/24 04:15:19;;;;;;;;;;;;;;;;;;5091447;28;19912;-75
2022/05/24 04:18:05;;;;;;;;;;;;;;;;;;5094046;28;19931;-77
2022/05/24 04:20:52;;;;;;;;;;;;;;;;;;5086258;28;20720;-76
2022/05/24 04:23:38;;;;;;;;;;;;;;;;;;5092298;28;19915;-75
2022/05/24 04:26:25;;;;;;;;;;;;;;;;;;5087073;28;19908;-76
2022/05/24 04:29:14;;;;;;;;;;;;;;;;;;5087050;28;20303;-75
2022/05/24 04:32:01;;;;;;;;;;;;;;;;;;5086968;28;19920;-75
2022/05/24 04:34:47;;;;;;;;;;;;;;;;;;5085569;28;19908;-75
2022/05/24 04:37:34;;;;;;;;;;;;;;;;;;5089419;28;19927;-76
2022/05/24 04:42:18;;;;;;;;;;;;;;;;;;5100350;28;19908;-76
2022/05/24 04:43:27;;;;;;;;;;;;;;;;;;5089568;28;19915;-76
2022/05/24 04:46:13;;;;;;;;;;;;;;;;;;5096597;28;20386;-75
2022/05/24 04:48:59;;;;;;;;;;;;;;;;;;5081366;28;19919;-73
2022/05/24 04:51:46;;;;;;;;;;;;;;;;;;5096997;28;20371;-74
2022/05/24 04:54:32;;;;;;;;;;;;;;;;;;5087912;28;19916;-74
2022/05/24 04:57:19;;;;;;;;;;;;;;;;;;5082900;28;21191;-74
2022/05/24 05:00:06;;;;;;;;;;;;;;;;;;5093994;28;19921;-74
2022/05/24 05:02:53;;;;;;;;;;;;;;;;;;5094707;28;19912;-75
2022/05/24 05:05:39;;;;;;;;;;;;;;;;;;5094911;28;20299;-76
2022/05/24 05:08:25;;;;;;;;;;;;;;;;;;5091755;28;19923;-74
2022/05/24 05:11:12;;;;;;;;;;;;;;;;;;5082108;28;19926;-75
2022/05/24 05:13:58;;;;;;;;;;;;;;;;;;5089144;28;20006;-74
2022/05/24 05:16:45;;;;;;;;;;;;;;;;;;5093809;28;19914;-74
2022/05/24 05:19:31;;;;;;;;;;;;;;;;;;5098196;28;19920;-74
2022/05/24 05:22:18;;;;;;;;;;;;;;;;;;5085752;28;19919;-75
2022/05/24 05:25:05;;;;;;;;;;;;;;;;;;5089472;28;19930;-74
2022/05/24 05:27:51;;;;;;;;;;;;;;;;;;5090272;28;19909;-74
2022/05/24 05:33:47;;;;;;;;;;;;;;;;;;5089647;28;20374;-75
2022/05/24 05:36:34;;;;;;;;;;;;;;;;;;5081399;28;19919;-75
2022/05/24 05:39:20;;;;;;;;;;;;;;;;;;5085359;28;20295;-76
2022/05/24 05:42:06;;;;;;;;;;;;;;;;;;5092374;28;19920;-75
2022/05/24 05:44:53;;;;;;;;;;;;;;;;;;5097182;28;19923;-75
2022/05/24 05:47:40;;;;;;;;;;;;;;;;;;5084990;28;19908;-75
2022/05/24 05:50:27;;;;;;;;;;;;;;;;;;5088434;28;19915;-74
2022/05/24 05:53:13;;;;;;;;;;;;;;;;;;5089114;28;20291;-76
2022/05/24 05:55:59;;;;;;;;;;;;;;;;;;5082596;28;19908;-76
2022/05/24 05:58:46;;;;;;;;;;;;;;;;;;5087980;28;19926;-76
2022/05/24 06:01:33;;;;;;;;;;;;;;;;;;5095280;28;19922;-76
2022/05/24 06:04:19;;;;;;;;;;;;;;;;;;5084949;28;19917;-76
2022/05/24 06:07:06;;;;;;;;;;;;;;;;;;5098530;28;19912;-75
2022/05/24 06:09:52;;;;;;;;;;;;;;;;;;5087854;28;19919;-75
2022/05/24 06:12:39;;;;;;;;;;;;;;;;;;5089716;28;19918;-74
2022/05/24 06:15:25;;;;;;;;;;;;;;;;;;5094146;28;19911;-75
2022/05/24 06:18:12;;;;;;;;;;;;;;;;;;5094403;28;19917;-75
2022/05/24 06:20:58;;;;;;;;;;;;;;;;;;5088142;28;19919;-75
2022/05/24 06:23:45;;;;;;;;;;;;;;;;;;5094769;28;20284;-76
2022/05/24 06:26:32;;;;;;;;;;;;;;;;;;5087571;28;19919;-74
2022/05/24 06:29:18;;;;;;;;;;;;;;;;;;5087689;28;19935;-76
2022/05/24 06:32:05;;;;;;;;;;;;;;;;;;5046996;28;19928;-76
2022/05/24 06:34:53;;;;;;;;;;;;;;;;;;5047445;28;19916;-75
2022/05/24 06:37:40;;;;;;;;;;;;;;;;;;5047301;28;20292;-75
2022/05/24 06:40:27;;;;;;;;;;;;;;;;;;5052526;28;19912;-75
2022/05/24 06:43:16;;;;;;;;;;;;;;;;;;5048768;28;21329;-76
2022/05/24 06:46:07;;;;;;;;;;;;;;;;;;5048734;28;20284;-74
2022/05/24 06:48:54;;;;;;;;;;;;;;;;;;5049380;28;19917;-75
2022/05/24 06:51:40;;;;;;;;;;;;;;;;;;5043137;28;19915;-74
2022/05/24 06:54:27;;;;;;;;;;;;;;;;;;5062222;28;19991;-75
2022/05/24 06:57:14;;;;;;;;;;;;;;;;;;5052125;28;19929;-75
2022/05/24 07:03:05;;;;;;;;;;;;;;;;;;5042000;28;19913;-75
2022/05/24 07:05:52;;;;;;;;;;;;;;;;;;5059928;28;19909;-74
2022/05/24 07:08:38;;;;;;;;;;;;;;;;;;5054188;28;19916;-77
2022/05/24 07:11:25;;;;;;;;;;;;;;;;;;5043354;28;19908;-74
2022/05/24 07:14:11;;;;;;;;;;;;;;;;;;5052532;28;19913;-74
2022/05/24 07:16:58;;;;;;;;;;;;;;;;;;5052495;28;19908;-74
2022/05/24 07:19:44;;;;;;;;;;;;;;;;;;5034588;28;20377;-74
2022/05/24 07:22:31;;;;;;;;;;;;;;;;;;5039617;28;20439;-76
2022/05/24 07:25:18;;;;;;;;;;;;;;;;;;5037084;28;19921;-76
2022/05/24 07:28:04;;;;;;;;;;;;;;;;;;5040880;28;19916;-76
2022/05/24 07:30:51;;;;;;;;;;;;;;;;;;5043045;28;19921;-76
2022/05/24 07:33:37;;;;;;;;;;;;;;;;;;5066911;28;19920;-76
2022/05/24 07:36:24;;;;;;;;;;;;;;;;;;5067315;28;19923;-75
2022/05/24 07:39:10;;;;;;;;;;;;;;;;;;5070349;28;19943;-75
2022/05/24 07:48:09;;;;;;;;;;;;;;;;;;5069591;28;19913;-75
2022/05/24 07:50:55;;;;;;;;;;;;;;;;;;5071495;28;19923;-76
2022/05/24 07:53:42;;;;;;;;;;;;;;;;;;5060927;28;19951;-76
2022/05/24 07:56:28;;;;;;;;;;;;;;;;;;5068595;28;19917;-76
2022/05/24 07:59:14;;;;;;;;;;;;;;;;;;5068679;28;19920;-75
2022/05/24 08:02:01;;;;;;;;;;;;;;;;;;5066611;28;19909;-75
2022/05/24 08:04:47;;;;;;;;;;;;;;;;;;5071190;28;20152;-76
2022/05/24 08:07:34;;;;;;;;;;;;;;;;;;5067280;28;19931;-76
2022/05/24 08:10:20;;;;;;;;;;;;;;;;;;5069230;28;20003;-76
2022/05/24 08:13:07;;;;;;;;;;;;;;;;;;5074383;28;19944;-75
2022/05/24 08:15:53;;;;;;;;;;;;;;;;;;5066560;28;19920;-76
2022/05/24 08:18:40;;;;;;;;;;;;;;;;;;5080274;28;19931;-75
2022/05/24 08:21:27;;;;;;;;;;;;;;;;;;5079930;28;19912;-76
2022/05/24 08:24:13;;;;;;;;;;;;;;;;;;5082531;28;19923;-74
2022/05/24 08:27:00;;;;;;;;;;;;;;;;;;5103870;28;19909;-73
2022/05/24 08:29:46;;;;;;;;;;;;;;;;;;5082843;28;19912;-76
2022/05/24 08:32:33;;;;;;;;;;;;;;;;;;5086619;28;19920;-75
2022/05/24 08:35:19;;;;;;;;;;;;;;;;;;5097315;28;19915;-75
2022/05/24 08:38:06;;;;;;;;;;;;;;;;;;5093089;28;19916;-75
2022/05/24 08:40:52;;;;;;;;;;;;;;;;;;5091376;28;20395;-75
2022/05/24 08:43:39;;;;;;;;;;;;;;;;;;5093400;28;19919;-75
2022/05/24 08:49:31;;;;;;;;;;;;;;;;;;5092446;28;19915;-76
2022/05/24 08:52:17;;;;;;;;;;;;;;;;;;5091148;28;19908;-74
2022/05/24 08:55:04;;;;;;;;;;;;;;;;;;5096606;28;19920;-74
2022/05/24 08:57:50;;;;;;;;;;;;;;;;;;5096608;28;19922;-74
2022/05/24 09:00:37;;;;;;;;;;;;;;;;;;5088893;28;19924;-74
2022/05/24 09:03:25;;;;;;;;;;;;;;;;;;5104440;27;20513;-76
2022/05/24 09:06:11;;;;;;;;;;;;;;;;;;5095113;28;19939;-76
2022/05/24 09:08:58;;;;;;;;;;;;;;;;;;5095404;28;19939;-74
2022/05/24 09:11:45;;;;;;;;;;;;;;;;;;5092048;28;19922;-74
2022/05/24 09:14:31;;;;;;;;;;;;;;;;;;5093796;28;20308;-73
2022/05/24 09:17:18;;;;;;;;;;;;;;;;;;5088872;28;20563;-74
2022/05/24 09:20:04;;;;;;;;;;;;;;;;;;5096058;28;19920;-75
2022/05/24 09:22:51;;;;;;;;;;;;;;;;;;5093439;28;19915;-75
2022/05/24 09:25:37;;;;;;;;;;;;;;;;;;5094946;28;19919;-74
2022/05/24 09:28:23;;;;;;;;;;;;;;;;;;5094634;28;19923;-74
2022/05/24 09:31:10;;;;;;;;;;;;;;;;;;5089695;28;19924;-73
2022/05/24 09:33:56;;;;;;;;;;;;;;;;;;5097999;28;19919;-74
2022/05/24 09:36:43;;;;;;;;;;;;;;;;;;5087667;28;20643;-75
2022/05/24 09:39:30;;;;;;;;;;;;;;;;;;5091898;28;19920;-75
2022/05/24 09:42:16;;;;;;;;;;;;;;;;;;5079238;28;20276;-75
2022/05/24 09:45:03;;;;;;;;;;;;;;;;;;5090511;28;19915;-74
2022/05/24 09:47:49;;;;;;;;;;;;;;;;;;5075791;28;20457;-75
2022/05/24 09:50:35;;;;;;;;;;;;;;;;;;5090806;28;19914;-74
2022/05/24 09:53:22;;;;;;;;;;;;;;;;;;5084233;28;19915;-75
2022/05/24 09:56:08;;;;;;;;;;;;;;;;;;5089549;28;19912;-75
2022/05/24 09:58:55;;;;;;;;;;;;;;;;;;5090053;28;20049;-74
2022/05/24 10:01:43;;;;;;;;;;;;;;;;;;5093439;28;19919;-74
2022/05/24 10:04:30;;;;;;;;;;;;;;;;;;5093016;28;19915;-75
2022/05/24 10:07:16;;;;;;;;;;;;;;;;;;5087447;28;19907;-75
2022/05/24 10:10:03;;;;;;;;;;;;;;;;;;5082784;28;20353;-74
2022/05/24 10:12:49;;;;;;;;;;;;;;;;;;5080387;28;20481;-75
2022/05/24 10:15:37;;;;;;;;;;;;;;;;;;5089710;28;19919;-75
2022/05/24 10:18:24;;;;;;;;;;;;;;;;;;5083384;28;19943;-75
2022/05/24 10:21:10;;;;;;;;;;;;;;;;;;5087655;28;19913;-75
2022/05/24 10:24:00;;;;;;;;;;;;;;;;;;5087586;28;19919;-75
2022/05/24 10:26:47;;;;;;;;;;;;;;;;;;5095586;28;19914;-75
2022/05/24 10:29:33;;;;;;;;;;;;;;;;;;5073766;28;19912;-74
2022/05/24 10:38:30;;;;;;;;;;;;;;;;;;5043562;28;19920;-74
2022/05/24 10:41:16;;;;;;;;;;;;;;;;;;5046576;28;19909;-75
2022/05/24 10:44:03;;;;;;;;;;;;;;;;;;5049530;28;20250;-76
2022/05/24 10:46:49;;;;;;;;;;;;;;;;;;5047277;28;20361;-75
2022/05/24 10:49:36;;;;;;;;;;;;;;;;;;5036690;28;20002;-77
2022/05/24 10:52:23;;;;;;;;;;;;;;;;;;5035050;28;19913;-75
2022/05/24 10:55:13;;;;;;;;;;;;;;;;;;5053064;28;19915;-75
2022/05/24 10:57:59;;;;;;;;;;;;;;;;;;5041774;28;20048;-77
2022/05/24 11:00:46;;;;;;;;;;;;;;;;;;5054982;28;19917;-75
2022/05/24 11:03:32;;;;;;;;;;;;;;;;;;5073459;28;19919;-75
2022/05/24 11:06:19;;;;;;;;;;;;;;;;;;5041255;28;19924;-75
2022/05/24 11:09:05;;;;;;;;;;;;;;;;;;5039937;28;19909;-75
2022/05/24 11:11:51;;;;;;;;;;;;;;;;;;5043296;28;19923;-76
2022/05/24 11:14:38;;;;;;;;;;;;;;;;;;5039880;28;19909;-75
2022/05/24 11:17:25;;;;;;;;;;;;;;;;;;5039862;28;19909;-75
2022/05/24 11:20:12;;;;;;;;;;;;;;;;;;5039831;28;19931;-75
2022/05/24 11:22:58;;;;;;;;;;;;;;;;;;5038380;28;19928;-75
2022/05/24 11:25:45;;;;;;;;;;;;;;;;;;5040480;28;19909;-75
2022/05/24 11:28:32;;;;;;;;;;;;;;;;;;5037452;28;19931;-75
2022/05/24 11:31:19;;;;;;;;;;;;;;;;;;5066772;28;19930;-74
2022/05/24 11:34:05;;;;;;;;;;;;;;;;;;5094272;28;19908;-75
2022/05/24 11:36:55;;;;;;;;;;;;;;;;;;5084746;28;19923;-75
2022/05/24 11:39:41;;;;;;;;;;;;;;;;;;5092436;28;19927;-75
2022/05/24 11:42:32;;;;;;;;;;;;;;;;;;5093604;28;19916;-75
2022/05/24 11:45:19;;;;;;;;;;;;;;;;;;5086406;28;20265;-75
2022/05/24 11:48:05;;;;;;;;;;;;;;;;;;5091230;28;19914;-75
2022/05/24 11:50:52;;;;;;;;;;;;;;;;;;5090130;28;19908;-75
2022/05/24 11:53:38;;;;;;;;;;;;;;;;;;5080011;28;19912;-75
2022/05/24 11:56:25;;;;;;;;;;;;;;;;;;5089660;28;19931;-74
2022/05/24 11:59:16;;;;;;;;;;;;;;;;;;5089562;28;20053;-75
2022/05/24 12:02:02;;;;;;;;;;;;;;;;;;5095330;28;19916;-74
2022/05/24 12:07:54;;;;;;;;;;;;;;;;;;5089093;28;19918;-77
2022/05/24 12:10:43;;;;;;;;;;;;;;;;;;5080531;28;19908;-74
2022/05/24 12:13:30;;;;;;;;;;;;;;;;;;5091570;28;19915;-75
2022/05/24 12:16:16;;;;;;;;;;;;;;;;;;5092368;28;19908;-74
2022/05/24 12:19:03;;;;;;;;;;;;;;;;;;5087016;28;20282;-74
2022/05/24 12:21:49;;;;;;;;;;;;;;;;;;5089897;28;19916;-74
2022/05/24 12:24:36;;;;;;;;;;;;;;;;;;5102315;28;20345;-74
2022/05/24 12:27:22;;;;;;;;;;;;;;;;;;5088259;28;19912;-74
2022/05/24 12:30:09;;;;;;;;;;;;;;;;;;5089439;28;19916;-76
2022/05/24 12:32:56;;;;;;;;;;;;;;;;;;5085966;28;20394;-75
2022/05/24 12:35:42;;;;;;;;;;;;;;;;;;5088594;28;19915;-75
2022/05/24 12:38:29;;;;;;;;;;;;;;;;;;5091175;28;19934;-75
2022/05/24 12:41:15;;;;;;;;;;;;;;;;;;5101593;28;19919;-75
2022/05/24 12:44:02;;;;;;;;;;;;;;;;;;5096046;28;19975;-74
2022/05/24 12:46:49;;;;;;;;;;;;;;;;;;5100468;28;20013;-76
2022/05/24 12:49:35;;;;;;;;;;;;;;;;;;5090249;28;19916;-76
2022/05/24 12:52:22;;;;;;;;;;;;;;;;;;5090062;28;19913;-75
2022/05/24 12:55:09;;;;;;;;;;;;;;;;;;5094161;28;19912;-74
2022/05/24 12:57:55;;;;;;;;;;;;;;;;;;5104401;27;19920;-74
2022/05/24 13:00:42;;;;;;;;;;;;;;;;;;5093668;28;19924;-75
2022/05/24 13:03:28;;;;;;;;;;;;;;;;;;5090213;28;19939;-74
2022/05/24 13:06:15;;;;;;;;;;;;;;;;;;5094212;28;19920;-75
2022/05/24 13:09:01;;;;;;;;;;;;;;;;;;5099634;28;19908;-74
2022/05/24 13:11:47;;;;;;;;;;;;;;;;;;5099142;28;19908;-75
2022/05/24 13:14:34;;;;;;;;;;;;;;;;;;5105658;27;19938;-75
2022/05/24 13:17:23;;;;;;;;;;;;;;;;;;5100207;28;19908;-74
2022/05/24 13:20:09;;;;;;;;;;;;;;;;;;5085861;28;19923;-73
2022/05/24 13:22:56;;;;;;;;;;;;;;;;;;5089990;28;19912;-74
2022/05/24 13:25:42;;;;;;;;;;;;;;;;;;5081134;28;19916;-75
2022/05/24 13:28:28;;;;;;;;;;;;;;;;;;5092859;28;19916;-75
2022/05/24 13:34:23;;;;;;;;;;;;;;;;;;5089609;28;20372;-75
2022/05/24 13:37:11;;;;;;;;;;;;;;;;;;5090231;28;19919;-75
2022/05/24 13:39:58;;;;;;;;;;;;;;;;;;5098687;28;19923;-75
2022/05/24 13:42:44;;;;;;;;;;;;;;;;;;5089119;28;19916;-75
2022/05/24 13:45:32;;;;;;;;;;;;;;;;;;5088717;28;19918;-76
2022/05/24 13:48:19;;;;;;;;;;;;;;;;;;5090520;28;19923;-75
2022/05/24 13:51:06;;;;;;;;;;;;;;;;;;5100140;28;19919;-75
2022/05/24 13:53:52;;;;;;;;;;;;;;;;;;5092212;28;19920;-75
2022/05/24 13:56:39;;;;;;;;;;;;;;;;;;5090244;28;20306;-75
2022/05/24 13:59:26;;;;;;;;;;;;;;;;;;5090119;28;19923;-74
2022/05/24 14:02:12;;;;;;;;;;;;;;;;;;5090437;28;20285;-76
2022/05/24 14:04:58;;;;;;;;;;;;;;;;;;5098739;28;19912;-74
2022/05/24 14:07:45;;;;;;;;;;;;;;;;;;5093374;28;19916;-74
2022/05/24 14:10:31;;;;;;;;;;;;;;;;;;5099957;28;19912;-74
2022/05/24 14:13:18;;;;;;;;;;;;;;;;;;5097748;28;19935;-74
2022/05/24 14:16:04;;;;;;;;;;;;;;;;;;5101555;28;20336;-74
2022/05/24 14:18:51;;;;;;;;;;;;;;;;;;5099645;28;19919;-76
2022/05/24 14:21:40;;;;;;;;;;;;;;;;;;5089530;28;20338;-74
2022/05/24 14:24:27;;;;;;;;;;;;;;;;;;5084102;28;20374;-76
2022/05/24 14:27:13;;;;;;;;;;;;;;;;;;5087908;28;19912;-75
2022/05/24 14:30:00;;;;;;;;;;;;;;;;;;5083573;28;20977;-78
2022/05/24 14:33:00;;;;;;;;;;;;;;;;;;5085781;28;19926;-77
2022/05/24 14:35:49;;;;;;;;;;;;;;;;;;5081382;28;19916;-77
2022/05/24 14:38:36;;;;;;;;;;;;;;;;;;5087324;28;19941;-78
2022/05/24 14:41:25;;;;;;;;;;;;;;;;;;5098439;28;19931;-77
2022/05/24 14:44:13;;;;;;;;;;;;;;;;;;5076968;28;19916;-76
2022/05/24 14:47:09;;;;;;;;;;;;;;;;;;5095955;27;19919;-78
2022/05/24 14:49:55;;;;;;;;;;;;;;;;;;5081685;28;20590;-75
2022/05/24 14:52:41;;;;;;;;;;;;;;;;;;5080437;28;19912;-77
2022/05/24 14:55:28;;;;;;;;;;;;;;;;;;5094862;28;19920;-76
2022/05/24 14:58:15;;;;;;;;;;;;;;;;;;5099605;27;19920;-76
2022/05/24 15:01:09;;;;;;;;;;;;;;;;;;5096236;28;19924;-75
2022/05/24 15:03:55;;;;;;;;;;;;;;;;;;5079728;28;19916;-78
2022/05/24 15:06:42;;;;;;;;;;;;;;;;;;5081525;28;19919;-76
2022/05/24 15:15:39;;;;;;;;;;;;;;;;;;5085338;28;20009;-76
2022/05/24 15:18:25;;;;;;;;;;;;;;;;;;5082553;28;19912;-76
2022/05/24 15:21:12;;;;;;;;;;;;;;;;;;5083069;28;19928;-77
2022/05/24 15:23:58;;;;;;;;;;;;;;;;;;5092583;28;19920;-76
2022/05/24 15:26:45;;;;;;;;;;;;;;;;;;5082960;28;19920;-76
2022/05/24 15:29:31;;;;;;;;;;;;;;;;;;5077192;28;19916;-77
2022/05/24 15:32:18;;;;;;;;;;;;;;;;;;5080974;28;19920;-79
2022/05/24 15:35:05;;;;;;;;;;;;;;;;;;5081155;28;20402;-79
2022/05/24 15:37:51;;;;;;;;;;;;;;;;;;5082534;28;19923;-79
2022/05/24 15:40:38;;;;;;;;;;;;;;;;;;5080101;28;20244;-78
2022/05/24 15:43:24;;;;;;;;;;;;;;;;;;5080979;28;19912;-79
2022/05/24 15:46:11;;;;;;;;;;;;;;;;;;5087978;28;19923;-78
2022/05/24 15:48:59;;;;;;;;;;;;;;;;;;5080900;28;19908;-78
2022/05/24 15:51:46;;;;;;;;;;;;;;;;;;5083792;28;20356;-78
2022/05/24 15:54:32;;;;;;;;;;;;;;;;;;5100985;28;19914;-78
2022/05/24 15:57:19;;;;;;;;;;;;;;;;;;5090268;28;19912;-78
2022/05/24 16:00:06;;;;;;;;;;;;;;;;;;5091119;28;19916;-77
2022/05/24 16:02:53;;;;;;;;;;;;;;;;;;5085124;28;20284;-78
2022/05/24 16:11:50;;;;;;;;;;;;;;;;;;5083479;28;19917;-77
2022/05/24 16:14:39;;;;;;;;;;;;;;;;;;5079205;28;19939;-77
2022/05/24 16:17:26;;;;;;;;;;;;;;;;;;5090863;28;20390;-76
2022/05/24 16:20:13;;;;;;;;;;;;;;;;;;5088701;28;20418;-77
2022/05/24 16:22:59;;;;;;;;;;;;;;;;;;5091594;28;19922;-77
2022/05/24 16:25:46;;;;;;;;;;;;;;;;;;5095018;28;19914;-77
2022/05/24 16:28:32;;;;;;;;;;;;;;;;;;5088260;28;20363;-78
2022/05/24 16:31:19;;;;;;;;;;;;;;;;;;5089262;28;19924;-78
2022/05/24 16:34:05;;;;;;;;;;;;;;;;;;5088014;28;20387;-76
2022/05/24 16:36:52;;;;;;;;;;;;;;;;;;5086756;28;20536;-77
2022/05/24 16:39:38;;;;;;;;;;;;;;;;;;5086764;28;19920;-77
2022/05/24 16:42:25;;;;;;;;;;;;;;;;;;5085491;28;20287;-76
2022/05/24 16:45:14;;;;;;;;;;;;;;;;;;5085948;28;19912;-78
2022/05/24 16:48:01;;;;;;;;;;;;;;;;;;5093590;28;20372;-78
2022/05/24 16:50:47;;;;;;;;;;;;;;;;;;5094697;28;19918;-78
2022/05/24 16:53:35;;;;;;;;;;;;;;;;;;5091723;28;19912;-77
2022/05/24 16:59:26;;;;;;;;;;;;;;;;;;5086593;28;20396;-77
2022/05/24 17:02:14;;;;;;;;;;;;;;;;;;5086146;28;19909;-79
2022/05/24 17:05:01;;;;;;;;;;;;;;;;;;5096404;27;19927;-78
2022/05/24 17:07:47;;;;;;;;;;;;;;;;;;5085122;28;19908;-77
2022/05/24 17:10:34;;;;;;;;;;;;;;;;;;5089094;28;19920;-77
2022/05/24 17:13:20;;;;;;;;;;;;;;;;;;5083965;28;20625;-77
2022/05/24 17:16:07;;;;;;;;;;;;;;;;;;5090382;28;20237;-79
2022/05/24 17:18:53;;;;;;;;;;;;;;;;;;5090576;28;19919;-78
2022/05/24 17:21:41;;;;;;;;;;;;;;;;;;5088412;28;19919;-78
2022/05/24 17:24:27;;;;;;;;;;;;;;;;;;5087677;28;19916;-78
2022/05/24 17:27:14;;;;;;;;;;;;;;;;;;5085311;28;20272;-78
2022/05/24 17:30:00;;;;;;;;;;;;;;;;;;5095016;28;19912;-79
2022/05/24 17:32:46;;;;;;;;;;;;;;;;;;5085183;28;19916;-78
2022/05/24 17:35:33;;;;;;;;;;;;;;;;;;5081190;28;19919;-78
2022/05/24 17:38:20;;;;;;;;;;;;;;;;;;5094745;28;19919;-76
2022/05/24 17:41:06;;;;;;;;;;;;;;;;;;5092915;28;19920;-78
2022/05/24 17:43:52;;;;;;;;;;;;;;;;;;5090768;28;19931;-77
2022/05/24 17:46:39;;;;;;;;;;;;;;;;;;5089531;28;19916;-77
2022/05/24 17:49:25;;;;;;;;;;;;;;;;;;5092019;28;19947;-77
2022/05/24 17:52:12;;;;;;;;;;;;;;;;;;5081721;28;19908;-77
2022/05/24 17:54:58;;;;;;;;;;;;;;;;;;5078524;28;20386;-77
2022/05/24 17:57:45;;;;;;;;;;;;;;;;;;5088060;28;19938;-77
2022/05/24 18:00:32;;;;;;;;;;;;;;;;;;5089090;28;19923;-77
2022/05/24 18:03:18;;;;;;;;;;;;;;;;;;5092376;28;19948;-78
2022/05/24 18:06:05;;;;;;;;;;;;;;;;;;5096881;28;19918;-78
2022/05/24 18:08:51;;;;;;;;;;;;;;;;;;5092632;28;19917;-77
2022/05/24 18:11:38;;;;;;;;;;;;;;;;;;5089230;28;19911;-79
2022/05/24 18:14:25;;;;;;;;;;;;;;;;;;5090764;28;19919;-77
2022/05/24 18:17:11;;;;;;;;;;;;;;;;;;5086636;28;19919;-77
2022/05/24 18:19:58;;;;;;;;;;;;;;;;;;5088230;28;19916;-79
2022/05/24 18:22:44;;;;;;;;;;;;;;;;;;5096914;28;19923;-78
2022/05/24 18:34:48;;;;;;;;;;;;;;;;;;5088729;28;19915;-77
2022/05/24 18:37:35;;;;;;;;;;;;;;;;;;5085952;28;19912;-75
2022/05/24 18:40:28;;;;;;;;;;;;;;;;;;5093036;28;19919;-75
2022/05/24 18:43:16;;;;;;;;;;;;;;;;;;5087931;28;19958;-76
2022/05/24 18:46:04;;;;;;;;;;;;;;;;;;5087746;28;19935;-74
2022/05/24 18:48:50;;;;;;;;;;;;;;;;;;5085154;28;19916;-75
2022/05/24 18:51:37;;;;;;;;;;;;;;;;;;5086234;28;19916;-76
2022/05/24 18:54:23;;;;;;;;;;;;;;;;;;5093921;28;20372;-76
2022/05/24 18:57:10;;;;;;;;;;;;;;;;;;5093406;28;19908;-75
2022/05/24 18:59:56;;;;;;;;;;;;;;;;;;5093731;28;19920;-76
2022/05/24 19:02:43;;;;;;;;;;;;;;;;;;5090352;28;19982;-76
2022/05/24 19:05:29;;;;;;;;;;;;;;;;;;5110661;27;19908;-76
2022/05/24 19:08:16;;;;;;;;;;;;;;;;;;5096654;28;19922;-76
2022/05/24 19:11:02;;;;;;;;;;;;;;;;;;5095019;28;19931;-77
2022/05/24 19:13:49;;;;;;;;;;;;;;;;;;5100036;28;19919;-75
2022/05/24 19:16:35;;;;;;;;;;;;;;;;;;5093099;28;19916;-76
2022/05/24 19:19:22;;;;;;;;;;;;;;;;;;5087449;28;19912;-77
2022/05/24 19:22:08;;;;;;;;;;;;;;;;;;5093280;28;19934;-76
2022/05/24 19:24:55;;;;;;;;;;;;;;;;;;5082134;28;19915;-75
2022/05/24 19:27:41;;;;;;;;;;;;;;;;;;5092279;28;19912;-76
2022/05/24 19:30:28;;;;;;;;;;;;;;;;;;5088617;28;20041;-76
2022/05/24 19:33:14;;;;;;;;;;;;;;;;;;5085932;28;19953;-76
2022/05/24 19:36:01;;;;;;;;;;;;;;;;;;5095669;28;20637;-76
2022/05/24 19:41:53;;;;;;;;;;;;;;;;;;5097100;28;19922;-76
2022/05/24 19:44:39;;;;;;;;;;;;;;;;;;5094696;28;19915;-76
2022/05/24 19:47:26;;;;;;;;;;;;;;;;;;5088043;28;20650;-76
2022/05/24 19:50:12;;;;;;;;;;;;;;;;;;5081109;28;19918;-77
2022/05/24 19:52:59;;;;;;;;;;;;;;;;;;5086597;28;19916;-76
2022/05/24 19:55:46;;;;;;;;;;;;;;;;;;5095856;28;19908;-76
2022/05/24 19:58:32;;;;;;;;;;;;;;;;;;5084687;28;20544;-76
2022/05/24 20:01:19;;;;;;;;;;;;;;;;;;5084449;28;20296;-74
2022/05/24 20:04:05;;;;;;;;;;;;;;;;;;5078043;28;19909;-74